Aérodrome :
LOGIN :

S'inscrire | Disclaimer

   EN    FR    IT 

 










Légende :    VFR   VFR Marginal   IFR   IFR Intensif   IFR Très Intensif
Visi : 
Plafond : 
>= 8 km
>= 3000ft
5 à 8 km
1000 à 3000 ft
1500m à 5 km
500 à 1000 ft
800 à 1500m
200 à 500 ft
< 800m
< 200 ft
Symboles :   Orages  Brouillard  Fortes neiges  Fortes précipitations  Vent > 20 kt
SIGMETs :   Divers  Orages  Givrage  Turbulence  Onde Orograph.  Cendres Volcan.






- Altitude de l'aérodrome : 512 ft
- Code IATA : URO


LFOP - Rouen Vallée de Seine

DERNIER METAR :
  • 161600Z AUTO 33008KT 300V010 9999 OVC025 18/13 Q1021 NOSIG

METARs EXPIRÉS :
  • 161530Z AUTO 32010KT 9999 BKN025 OVC030 19/13 Q1021 NOSIG
  • 161500Z AUTO 33011KT 310V020 9999 BKN029 OVC034 20/14 Q1021 NOSIG
  • 161430Z AUTO 33010KT 300V020 9999 BKN027 OVC032 20/14 Q1021 NOSIG
  • 161400Z AUTO 33009KT 310V020 9999 OVC027 19/14 Q1021 NOSIG
  • 161330Z AUTO 30008KT 250V330 9999 OVC027 20/14 Q1021 NOSIG

TAF TAF LFOP
Valide du 16 à 12h jusqu'au 17 à 12h UTC


161100Z 1612/1712 33007KT 9999 BKN020 BKN030
ATIS : +33 2 35 80 80 34
Météo : +33 2 32 86 52 80



MET'MAP, la Météo Aéronautique d'un coup d'oeil ! - Copyright ORBIFLY Décembre 2007 - Disclaimer

ORBIFLY MET'MAP TEAM :

Programmation & Développement : Alexandra Zaïnal
Sur une idée originale de : Baudouin d'Aumeries
Assistance à la programmation : Marc-Olivier Méhu
Soutien technique & logistique : Manuel Goepfert

Contact : metmap@orbifly.com




SOURCES & CREDITS :

   NOAA